createdAt,value
2023-02-08T00:01:39.619Z,-1.23
2023-02-08T00:04:25.660Z,-1.12
2023-02-08T00:07:11.312Z,-1.18
2023-02-08T00:09:57.188Z,-1.23
2023-02-08T00:12:42.859Z,-1.32
2023-02-08T00:15:29.045Z,-1.31
2023-02-08T00:18:15.014Z,-1.29
2023-02-08T00:21:00.910Z,-1.30
2023-02-08T00:23:46.809Z,-1.29
2023-02-08T00:26:32.652Z,-1.32
2023-02-08T00:29:19.105Z,-1.32
2023-02-08T00:32:05.221Z,-1.38
2023-02-08T00:34:51.361Z,-1.29
2023-02-08T00:37:37.204Z,-1.25
2023-02-08T00:40:23.104Z,-1.28
2023-02-08T00:43:09.555Z,-1.26
2023-02-08T00:45:56.756Z,-1.33
2023-02-08T00:48:43.706Z,-1.32
2023-02-08T00:51:29.666Z,-1.26
2023-02-08T00:54:17.226Z,-1.23
2023-02-08T00:57:03.080Z,-1.22
2023-02-08T00:59:49.304Z,-1.38
2023-02-08T01:02:35.243Z,-1.37
2023-02-08T01:05:20.995Z,-1.56
2023-02-08T01:08:07.072Z,-1.43
2023-02-08T01:10:53.352Z,-1.34
2023-02-08T01:13:41.876Z,-1.34
2023-02-08T01:16:31.754Z,-1.36
2023-02-08T01:19:19.583Z,-1.28
2023-02-08T01:22:05.765Z,-1.19
2023-02-08T01:24:51.511Z,-1.21
2023-02-08T01:27:37.438Z,-1.04
2023-02-08T01:30:24.036Z,-1.17
2023-02-08T01:33:10.144Z,-1.05
2023-02-08T01:35:56.046Z,-1.04
2023-02-08T01:38:42.661Z,-1.10
2023-02-08T01:41:34.423Z,-0.99
2023-02-08T01:44:57.879Z,-0.95
2023-02-08T01:47:45.470Z,-0.94
2023-02-08T01:50:43.007Z,-0.97
2023-02-08T01:53:30.861Z,-0.96
2023-02-08T01:56:23.253Z,-0.88
2023-02-08T01:59:13.982Z,-0.88
2023-02-08T02:02:00.836Z,-0.90
2023-02-08T02:04:48.255Z,-0.85
2023-02-08T02:07:33.978Z,-0.83
2023-02-08T02:10:26.820Z,-0.86
2023-02-08T02:13:20.439Z,-0.87
2023-02-08T02:16:06.951Z,-0.94
2023-02-08T02:18:53.836Z,-0.94
2023-02-08T02:21:39.798Z,-1.63
2023-02-08T02:24:34.295Z,-1.29
2023-02-08T02:27:59.109Z,-1.17
2023-02-08T02:31:19.633Z,-1.09
2023-02-08T02:34:31.666Z,-1.14
2023-02-08T02:37:49.655Z,-1.11
2023-02-08T02:40:56.717Z,-1.00
2023-02-08T02:43:47.721Z,-1.04
2023-02-08T02:46:43.432Z,-1.06
2023-02-08T02:49:37.204Z,-1.01
2023-02-08T02:52:34.654Z,-1.04
2023-02-08T02:55:22.976Z,-1.05
2023-02-08T02:58:11.045Z,-1.04
2023-02-08T03:00:58.606Z,-1.02
2023-02-08T03:03:44.468Z,-0.99
2023-02-08T03:06:57.465Z,-1.13
2023-02-08T03:09:55.617Z,-1.06
2023-02-08T03:13:19.356Z,-1.04
2023-02-08T03:16:14.393Z,-1.05
2023-02-08T03:19:08.126Z,-1.08
2023-02-08T03:21:53.815Z,-1.02
2023-02-08T03:25:00.673Z,-1.05
2023-02-08T03:28:02.085Z,-1.07
2023-02-08T03:30:52.752Z,-1.00
2023-02-08T03:33:45.816Z,-1.09
2023-02-08T03:36:49.550Z,-1.06
2023-02-08T03:39:36.621Z,-1.03
2023-02-08T03:42:25.559Z,-0.98
2023-02-08T03:45:25.135Z,-0.98
2023-02-08T03:48:12.367Z,-1.00
2023-02-08T03:50:59.009Z,-0.99
2023-02-08T03:53:46.542Z,-0.98
2023-02-08T03:56:41.732Z,-0.94
2023-02-08T03:59:30.950Z,-0.97
2023-02-08T04:02:20.106Z,-1.05
2023-02-08T04:05:06.750Z,-1.02
2023-02-08T04:07:52.910Z,-0.99
2023-02-08T04:10:39.116Z,-0.96
2023-02-08T04:13:25.383Z,-1.01
2023-02-08T04:16:12.408Z,-0.95
2023-02-08T04:18:58.284Z,-0.98
2023-02-08T04:21:44.077Z,-1.02
2023-02-08T04:24:29.870Z,-1.07
2023-02-08T04:27:15.737Z,-1.07
2023-02-08T04:30:01.659Z,-1.00
2023-02-08T04:32:47.495Z,-1.01
2023-02-08T04:35:34.347Z,-1.02
2023-02-08T04:38:20.089Z,-1.00
2023-02-08T04:41:06.006Z,-0.97
2023-02-08T04:43:51.807Z,-1.00
2023-02-08T04:46:37.768Z,-0.99
2023-02-08T04:49:23.575Z,-0.98
2023-02-08T04:52:09.428Z,-0.95
2023-02-08T04:54:55.118Z,-0.86
2023-02-08T04:57:40.871Z,-0.81
2023-02-08T05:00:27.150Z,-0.83
2023-02-08T05:03:13.714Z,-0.85
2023-02-08T05:06:00.226Z,-0.87
2023-02-08T05:08:46.349Z,-0.87
2023-02-08T05:11:32.319Z,-0.96
2023-02-08T05:14:18.199Z,-0.89
2023-02-08T05:17:04.091Z,-0.86
2023-02-08T05:19:49.774Z,-0.92
2023-02-08T05:22:35.964Z,-0.81
2023-02-08T05:25:22.058Z,-0.88
2023-02-08T05:28:07.830Z,-0.97
2023-02-08T05:30:53.666Z,-0.83
2023-02-08T05:33:39.493Z,-0.84
2023-02-08T05:36:25.365Z,-0.87
2023-02-08T05:39:11.145Z,-0.81
2023-02-08T05:41:56.978Z,-0.77
2023-02-08T05:44:42.745Z,-0.74
2023-02-08T05:47:28.766Z,-0.83
2023-02-08T05:50:14.911Z,-0.75
2023-02-08T05:53:04.890Z,-0.77
2023-02-08T05:55:56.902Z,-0.90
2023-02-08T05:58:42.677Z,-0.89
2023-02-08T06:01:29.288Z,-0.80
2023-02-08T06:04:15.425Z,-0.77
2023-02-08T06:07:01.235Z,-0.85
2023-02-08T06:09:48.580Z,-0.81
2023-02-08T06:12:34.861Z,-0.82
2023-02-08T06:15:20.763Z,-0.78
2023-02-08T06:18:06.512Z,-0.72
2023-02-08T06:20:54.316Z,-0.74
2023-02-08T06:23:41.308Z,-0.66
2023-02-08T06:26:27.299Z,-0.82
2023-02-08T06:29:16.586Z,-0.66
2023-02-08T06:32:03.132Z,-0.68
2023-02-08T06:34:50.948Z,-0.94
2023-02-08T06:37:36.766Z,-0.63
2023-02-08T06:40:22.706Z,-0.62
2023-02-08T06:43:08.658Z,-0.57
2023-02-08T06:45:54.849Z,-0.50
2023-02-08T06:48:40.687Z,-0.49
2023-02-08T06:51:27.467Z,-0.53
2023-02-08T06:54:15.669Z,-0.50
2023-02-08T06:57:02.022Z,-0.48
2023-02-08T06:59:47.802Z,-0.46
2023-02-08T07:02:33.977Z,-0.49
2023-02-08T07:05:20.049Z,-0.39
2023-02-08T07:08:06.626Z,-0.30
2023-02-08T07:10:52.839Z,-0.30
2023-02-08T07:13:38.790Z,-0.24
2023-02-08T07:16:26.169Z,-0.28
2023-02-08T07:19:11.958Z,-0.25
2023-02-08T07:21:59.450Z,-0.16
2023-02-08T07:24:45.480Z,-0.10
2023-02-08T07:27:31.425Z,-0.07
2023-02-08T07:30:17.242Z,-0.12
2023-02-08T07:33:03.083Z,-0.08
2023-02-08T07:35:49.061Z,-0.07
2023-02-08T07:38:35.299Z,-0.06
2023-02-08T07:41:21.261Z,0.01
2023-02-08T07:44:07.541Z,0.10
2023-02-08T07:46:53.422Z,0.07
2023-02-08T07:49:39.215Z,0.10
2023-02-08T07:52:24.919Z,0.12
2023-02-08T07:55:11.841Z,0.11
2023-02-08T07:57:58.728Z,0.12
2023-02-08T08:00:44.447Z,0.18
2023-02-08T08:03:30.373Z,0.15
2023-02-08T08:06:16.268Z,0.12
2023-02-08T08:09:02.077Z,0.21
2023-02-08T08:11:47.880Z,0.15
2023-02-08T08:14:33.556Z,0.21
2023-02-08T08:17:19.819Z,0.27
2023-02-08T08:20:06.003Z,0.20
2023-02-08T08:22:52.101Z,0.33
2023-02-08T08:25:38.201Z,0.21
2023-02-08T08:28:24.276Z,0.35
2023-02-08T08:31:19.223Z,0.34
2023-02-08T08:34:05.389Z,0.35
2023-02-08T08:36:51.195Z,0.34
2023-02-08T08:39:37.275Z,0.32
2023-02-08T08:42:22.951Z,0.28
2023-02-08T08:45:09.507Z,0.40
2023-02-08T08:47:55.665Z,0.45
2023-02-08T08:50:43.281Z,0.43
2023-02-08T08:53:29.617Z,0.47
2023-02-08T08:56:15.708Z,0.46
2023-02-08T08:59:01.477Z,0.51
2023-02-08T09:01:47.262Z,0.44
2023-02-08T09:04:33.688Z,0.51
2023-02-08T09:07:19.724Z,0.30
2023-02-08T09:10:06.149Z,0.61
2023-02-08T09:12:53.096Z,0.64
2023-02-08T09:15:40.679Z,0.69
2023-02-08T09:18:26.426Z,0.50
2023-02-08T09:21:21.136Z,0.79
2023-02-08T09:24:07.025Z,1.02
2023-02-08T09:26:52.713Z,1.13
2023-02-08T09:29:38.436Z,0.98
2023-02-08T09:32:24.146Z,1.12
2023-02-08T09:35:09.960Z,1.16
2023-02-08T09:37:58.204Z,1.20
2023-02-08T09:41:22.728Z,1.19
2023-02-08T09:44:26.663Z,1.34
2023-02-08T09:47:22.548Z,1.39
2023-02-08T09:50:39.729Z,1.51
2023-02-08T09:53:32.522Z,1.60
2023-02-08T09:56:22.103Z,1.67
2023-02-08T09:59:23.193Z,1.71
2023-02-08T10:02:21.664Z,1.74
2023-02-08T10:05:11.386Z,1.74
2023-02-08T10:07:58.640Z,1.86
2023-02-08T10:10:49.184Z,1.91
2023-02-08T10:13:44.506Z,1.87
2023-02-08T10:16:33.380Z,1.80
2023-02-08T10:19:55.518Z,1.77
2023-02-08T10:23:03.273Z,1.79
2023-02-08T10:26:29.501Z,1.75
2023-02-08T10:29:38.736Z,1.81
2023-02-08T10:33:00.592Z,1.88
2023-02-08T10:35:54.377Z,1.91
2023-02-08T10:38:46.697Z,1.86
2023-02-08T10:41:38.033Z,1.87
2023-02-08T10:44:56.636Z,1.75
2023-02-08T10:47:55.738Z,1.78
2023-02-08T10:50:46.315Z,1.80
2023-02-08T10:53:35.461Z,1.90
2023-02-08T10:56:39.164Z,1.88
2023-02-08T10:59:30.936Z,1.93
2023-02-08T11:02:28.834Z,1.72
2023-02-08T11:05:20.049Z,1.66
2023-02-08T11:08:10.726Z,1.89
2023-02-08T11:11:04.540Z,1.93
2023-02-08T11:13:51.722Z,2.08
2023-02-08T11:16:42.384Z,2.11
2023-02-08T11:19:37.657Z,2.28
2023-02-08T11:22:25.559Z,2.37
2023-02-08T11:25:32.881Z,2.36
2023-02-08T11:28:40.959Z,2.36
2023-02-08T11:31:36.552Z,2.59
2023-02-08T11:34:35.598Z,2.58
2023-02-08T11:37:28.084Z,2.61
2023-02-08T11:40:18.980Z,2.55
2023-02-08T11:43:07.999Z,2.67
2023-02-08T11:45:56.069Z,2.71
2023-02-08T11:48:49.427Z,2.77
2023-02-08T11:51:36.807Z,2.84
2023-02-08T11:54:41.461Z,2.61
2023-02-08T11:57:31.811Z,2.75
2023-02-08T12:00:23.915Z,2.83
2023-02-08T12:03:18.595Z,2.76
2023-02-08T12:06:18.015Z,2.95
2023-02-08T12:09:27.311Z,2.89
2023-02-08T12:12:17.791Z,3.10
2023-02-08T12:15:09.856Z,3.13
2023-02-08T12:18:14.283Z,3.16
2023-02-08T12:21:17.674Z,3.15
2023-02-08T12:24:08.160Z,3.15
2023-02-08T12:27:27.513Z,3.16
2023-02-08T12:30:30.302Z,3.07
2023-02-08T12:33:34.470Z,3.13
2023-02-08T12:36:41.370Z,3.14
2023-02-08T12:40:01.185Z,3.05
2023-02-08T12:43:00.617Z,2.88
2023-02-08T12:46:01.572Z,2.92
2023-02-08T12:48:59.709Z,2.81
2023-02-08T12:52:18.086Z,2.85
2023-02-08T12:55:25.899Z,2.73
2023-02-08T12:58:37.305Z,2.72
2023-02-08T13:01:30.028Z,2.84
2023-02-08T13:04:43.599Z,2.85
2023-02-08T13:07:33.909Z,2.92
2023-02-08T13:10:30.648Z,2.89
2023-02-08T13:13:22.379Z,2.93
2023-02-08T13:16:20.362Z,2.83
2023-02-08T13:19:22.581Z,2.97
2023-02-08T13:22:10.189Z,2.93
2023-02-08T13:25:12.122Z,2.96
2023-02-08T13:28:04.764Z,2.91
2023-02-08T13:31:02.848Z,3.05
2023-02-08T13:34:32.830Z,3.13
2023-02-08T13:37:31.497Z,3.23
2023-02-08T13:40:28.253Z,3.30
2023-02-08T13:43:37.741Z,3.27
2023-02-08T13:46:27.895Z,3.20
2023-02-08T13:49:41.568Z,3.21
2023-02-08T13:52:48.966Z,3.10
2023-02-08T13:55:41.584Z,3.10
2023-02-08T13:58:36.409Z,3.01
2023-02-08T14:01:27.864Z,3.24
2023-02-08T14:04:13.738Z,3.59
2023-02-08T14:07:08.460Z,3.78
2023-02-08T14:10:22.543Z,3.90
2023-02-08T14:13:27.379Z,3.80
2023-02-08T14:16:34.517Z,3.71
2023-02-08T14:19:24.671Z,3.69
2023-02-08T14:22:14.027Z,3.65
2023-02-08T14:25:16.985Z,3.63
2023-02-08T14:28:03.427Z,3.60
2023-02-08T14:30:52.084Z,3.56
2023-02-08T14:33:41.819Z,3.50
2023-02-08T14:36:35.557Z,3.50
2023-02-08T14:39:25.049Z,3.45
2023-02-08T14:42:13.939Z,3.32
2023-02-08T14:45:01.417Z,3.30
2023-02-08T14:47:47.102Z,3.18
2023-02-08T14:50:36.074Z,3.21
2023-02-08T14:53:24.580Z,3.20
2023-02-08T14:56:18.309Z,3.11
2023-02-08T14:59:26.672Z,3.04
2023-02-08T15:02:16.285Z,3.09
2023-02-08T15:05:09.950Z,3.00
2023-02-08T15:07:57.831Z,2.97
2023-02-08T15:10:45.465Z,2.95
2023-02-08T15:13:31.552Z,2.98
2023-02-08T15:16:17.417Z,2.87
2023-02-08T15:19:04.456Z,2.91
2023-02-08T15:21:50.571Z,2.91
2023-02-08T15:24:37.948Z,2.83
2023-02-08T15:27:27.058Z,2.75
2023-02-08T15:30:37.450Z,2.76
2023-02-08T15:33:23.325Z,2.71
2023-02-08T15:36:17.126Z,2.73
2023-02-08T15:39:23.296Z,2.60
2023-02-08T15:42:21.031Z,2.61
2023-02-08T15:45:24.578Z,2.50
2023-02-08T15:48:11.337Z,2.47
2023-02-08T15:50:57.529Z,2.42
2023-02-08T15:53:46.046Z,2.46
2023-02-08T15:56:38.666Z,2.53
2023-02-08T15:59:29.004Z,2.55
2023-02-08T16:02:23.916Z,2.52
2023-02-08T16:05:20.915Z,2.47
2023-02-08T16:08:07.242Z,2.41
2023-02-08T16:11:11.987Z,2.43
2023-02-08T16:13:59.395Z,2.46
2023-02-08T16:16:49.541Z,2.43
2023-02-08T16:19:35.332Z,2.44
2023-02-08T16:22:21.272Z,2.43
2023-02-08T16:25:34.035Z,2.33
2023-02-08T16:28:28.837Z,2.35
2023-02-08T16:31:20.383Z,2.37
2023-02-08T16:34:08.064Z,2.35
2023-02-08T16:36:54.870Z,2.05
2023-02-08T16:39:50.244Z,2.31
2023-02-08T16:42:40.045Z,2.30
2023-02-08T16:45:25.862Z,2.28
2023-02-08T16:48:51.207Z,2.21
2023-02-08T16:51:39.514Z,2.25
2023-02-08T16:54:28.375Z,2.28
2023-02-08T16:57:14.697Z,2.22
2023-02-08T17:00:00.935Z,2.17
2023-02-08T17:02:47.555Z,2.21
2023-02-08T17:05:38.483Z,2.14
2023-02-08T17:08:24.325Z,2.22
2023-02-08T17:11:13.461Z,2.25
2023-02-08T17:14:01.181Z,2.14
2023-02-08T17:16:47.378Z,2.11
2023-02-08T17:19:33.171Z,2.15
2023-02-08T17:22:19.556Z,2.18
2023-02-08T17:25:06.032Z,2.13
2023-02-08T17:27:58.164Z,2.06
2023-02-08T17:30:44.927Z,2.04
2023-02-08T17:33:33.288Z,2.04
2023-02-08T17:36:19.592Z,1.95
2023-02-08T17:39:06.246Z,1.97
2023-02-08T17:41:52.301Z,1.90
2023-02-08T17:44:38.027Z,1.87
2023-02-08T17:47:24.430Z,1.79
2023-02-08T17:50:12.519Z,1.67
2023-02-08T17:52:58.269Z,1.71
2023-02-08T17:55:45.574Z,1.68
2023-02-08T17:58:32.044Z,1.64
2023-02-08T18:01:21.645Z,1.64
2023-02-08T18:04:11.221Z,1.62
2023-02-08T18:06:57.384Z,1.53
2023-02-08T18:09:43.253Z,1.52
2023-02-08T18:12:29.245Z,1.46
2023-02-08T18:15:18.037Z,1.49
2023-02-08T18:18:04.127Z,1.35
2023-02-08T18:20:50.342Z,1.29
2023-02-08T18:23:36.389Z,1.27
2023-02-08T18:26:24.085Z,1.19
2023-02-08T18:29:11.161Z,1.24
2023-02-08T18:31:57.503Z,1.24
2023-02-08T18:34:45.303Z,1.19
2023-02-08T18:37:32.376Z,1.08
2023-02-08T18:40:18.434Z,1.12
2023-02-08T18:43:04.395Z,1.09
2023-02-08T18:46:04.646Z,0.98
2023-02-08T18:48:51.519Z,0.97
2023-02-08T18:51:37.643Z,0.94
2023-02-08T18:54:23.541Z,0.93
2023-02-08T18:57:12.288Z,0.92
2023-02-08T18:59:58.566Z,0.90
2023-02-08T19:02:46.097Z,0.90
2023-02-08T19:05:32.450Z,0.90
2023-02-08T19:08:18.194Z,0.85
2023-02-08T19:11:05.180Z,0.88
2023-02-08T19:13:52.170Z,0.87
2023-02-08T19:16:39.033Z,0.82
2023-02-08T19:19:25.421Z,0.84
2023-02-08T19:22:11.190Z,0.82
2023-02-08T19:24:57.393Z,0.80
2023-02-08T19:27:45.004Z,0.82
2023-02-08T19:30:30.762Z,0.79
2023-02-08T19:33:16.671Z,0.79
2023-02-08T19:36:10.004Z,0.74
2023-02-08T19:38:58.404Z,0.72
2023-02-08T19:41:45.452Z,0.62
2023-02-08T19:44:31.721Z,0.67
2023-02-08T19:47:18.505Z,0.67
2023-02-08T19:50:05.563Z,0.65
2023-02-08T19:52:51.389Z,0.60
2023-02-08T19:55:37.311Z,0.56
2023-02-08T19:58:23.369Z,0.57
2023-02-08T20:01:12.785Z,0.56
2023-02-08T20:03:58.691Z,0.50
2023-02-08T20:06:45.218Z,0.49
2023-02-08T20:09:31.276Z,0.44
2023-02-08T20:12:17.143Z,0.45
2023-02-08T20:15:03.013Z,0.40
2023-02-08T20:17:48.923Z,0.38
2023-02-08T20:20:35.951Z,0.34
2023-02-08T20:23:23.020Z,0.35
2023-02-08T20:26:14.060Z,0.27
2023-02-08T20:29:00.063Z,0.19
2023-02-08T20:31:52.207Z,0.21
2023-02-08T20:34:40.962Z,0.14
2023-02-08T20:37:33.996Z,0.02
2023-02-08T20:40:19.819Z,0.02
2023-02-08T20:43:05.674Z,-0.09
2023-02-08T20:45:51.562Z,-0.09
2023-02-08T20:48:37.498Z,-0.12
2023-02-08T20:51:25.872Z,-0.25
2023-02-08T20:54:12.331Z,-0.25
2023-02-08T20:56:58.563Z,-0.28
2023-02-08T20:59:45.619Z,-0.31
2023-02-08T21:02:31.649Z,-0.34
2023-02-08T21:05:17.552Z,-0.40
2023-02-08T21:08:03.563Z,-0.48
2023-02-08T21:10:49.347Z,-0.55
2023-02-08T21:13:35.542Z,-0.54
2023-02-08T21:16:21.927Z,-0.63
2023-02-08T21:19:07.667Z,-0.62
2023-02-08T21:21:55.396Z,-0.64
2023-02-08T21:24:41.598Z,-0.66
2023-02-08T21:27:27.427Z,-0.71
2023-02-08T21:30:13.452Z,-0.73
2023-02-08T21:32:59.472Z,-0.72
2023-02-08T21:35:45.221Z,-0.87
2023-02-08T21:38:31.439Z,-0.74
2023-02-08T21:41:20.463Z,-0.87
2023-02-08T21:44:08.307Z,-0.93
2023-02-08T21:46:54.570Z,-0.89
2023-02-08T21:49:59.029Z,-0.87
2023-02-08T21:53:03.648Z,-0.96
2023-02-08T21:55:49.470Z,-1.07
2023-02-08T21:58:35.597Z,-0.99
2023-02-08T22:01:21.704Z,-1.08
2023-02-08T22:04:07.588Z,-1.11
2023-02-08T22:06:53.354Z,-1.17
2023-02-08T22:09:41.648Z,-1.29
2023-02-08T22:12:27.457Z,-1.29
2023-02-08T22:15:16.201Z,-1.26
2023-02-08T22:18:03.135Z,-1.32
2023-02-08T22:20:52.225Z,-1.38
2023-02-08T22:23:38.135Z,-1.38
2023-02-08T22:26:24.017Z,-1.39
2023-02-08T22:29:10.603Z,-1.41
2023-02-08T22:31:56.798Z,-1.48
2023-02-08T22:34:44.497Z,-1.48
2023-02-08T22:37:32.888Z,-1.49
2023-02-08T22:40:19.149Z,-1.53
2023-02-08T22:43:05.082Z,-1.58
2023-02-08T22:46:00.701Z,-1.73
2023-02-08T22:48:46.905Z,-1.71
2023-02-08T22:51:32.690Z,-1.64
2023-02-08T22:54:18.530Z,-1.73
2023-02-08T22:57:06.026Z,-1.82
2023-02-08T22:59:52.155Z,-1.77
2023-02-08T23:02:38.008Z,-1.81
2023-02-08T23:05:23.764Z,-1.85
2023-02-08T23:08:10.375Z,-1.79
2023-02-08T23:11:05.068Z,-2.02
2023-02-08T23:13:51.102Z,-1.93
2023-02-08T23:16:37.157Z,-1.91
2023-02-08T23:19:23.429Z,-1.95
2023-02-08T23:22:09.562Z,-2.07
2023-02-08T23:24:55.670Z,-2.01
2023-02-08T23:27:41.748Z,-2.10
2023-02-08T23:30:27.710Z,-2.02
2023-02-08T23:33:13.574Z,-2.02
2023-02-08T23:35:59.444Z,-2.09
2023-02-08T23:38:45.356Z,-2.02
2023-02-08T23:41:31.544Z,-2.10
2023-02-08T23:44:17.781Z,-2.08
2023-02-08T23:47:03.560Z,-2.10
2023-02-08T23:49:49.511Z,-2.23
2023-02-08T23:52:36.556Z,-2.09
2023-02-08T23:55:23.587Z,-2.15
2023-02-08T23:58:09.741Z,-2.14
